Time;durP1;ratioP1;P1;durP2;ratioP2;P2;SDS_P1;SDS_P2;PMS_P1;PMS_P2;Temp;Humidity;BMP_temperature;BMP_pressure;BME280_temperature;BME280_humidity;BME280_pressure;Samples;Min_cycle;Max_cycle;Signal;HPM_P1;HPM_P2
2024/02/14 00:00:01;;;;;;;0.40;0.40;;;;;;;6.51;100.00;99444.66;5026619;28;19932;-58
2024/02/14 00:02:29;;;;;;;0.40;0.40;;;;;;;6.55;100.00;99440.56;5036220;28;20393;-58
2024/02/14 00:04:56;;;;;;;0.40;0.40;;;;;;;6.54;100.00;99443.41;5025873;28;20080;-58
2024/02/14 00:07:23;;;;;;;0.40;0.40;;;;;;;6.61;100.00;99447.69;5036098;28;20060;-58
2024/02/14 00:09:50;;;;;;;0.40;0.40;;;;;;;6.60;100.00;99447.91;5028473;28;20434;-59
2024/02/14 00:12:17;;;;;;;0.30;0.30;;;;;;;6.54;100.00;99440.75;5036788;28;20045;-58
2024/02/14 00:14:44;;;;;;;0.40;0.40;;;;;;;6.64;100.00;99446.44;5023714;28;20069;-58
2024/02/14 00:17:13;;;;;;;0.40;0.40;;;;;;;6.49;100.00;99452.06;5024260;28;20041;-58
2024/02/14 00:19:40;;;;;;;0.47;0.47;;;;;;;6.51;100.00;99459.81;5035116;28;20049;-58
2024/02/14 00:22:07;;;;;;;0.30;0.30;;;;;;;6.51;100.00;99465.16;5021616;28;20455;-58
2024/02/14 00:24:35;;;;;;;0.40;0.40;;;;;;;6.51;100.00;99455.31;5029839;28;20060;-58
2024/02/14 00:27:03;;;;;;;0.32;0.32;;;;;;;6.60;100.00;99458.56;5031036;28;20045;-58
2024/02/14 00:29:30;;;;;;;0.40;0.40;;;;;;;6.52;100.00;99456.16;5041411;28;20574;-59
2024/02/14 00:31:57;;;;;;;0.30;0.30;;;;;;;6.53;100.00;99455.94;5030065;28;20203;-59
2024/02/14 00:34:26;;;;;;;0.45;0.45;;;;;;;6.46;100.00;99457.78;5031463;28;20045;-58
2024/02/14 00:36:53;;;;;;;0.40;0.40;;;;;;;6.48;100.00;99451.22;5030876;28;20800;-58
2024/02/14 00:39:20;;;;;;;0.38;0.38;;;;;;;6.53;100.00;99457.78;5032084;28;20048;-58
2024/02/14 00:41:47;;;;;;;0.30;0.30;;;;;;;6.51;100.00;99447.31;5030494;28;20081;-58
2024/02/14 00:44:16;;;;;;;0.40;0.40;;;;;;;6.46;100.00;99447.13;5051225;28;20130;-58
2024/02/14 00:46:44;;;;;;;0.40;0.40;;;;;;;6.42;100.00;99457.41;5035973;28;20053;-58
2024/02/14 00:49:11;;;;;;;0.30;0.30;;;;;;;6.40;100.00;99442.66;5029316;28;20087;-58
2024/02/14 00:51:40;;;;;;;0.40;0.40;;;;;;;6.43;100.00;99436.91;5035803;28;20124;-58
2024/02/14 00:54:08;;;;;;;0.30;0.30;;;;;;;6.39;100.00;99441.00;5035070;28;20042;-58
2024/02/14 00:56:35;;;;;;;0.30;0.30;;;;;;;6.37;100.00;99448.41;5038519;28;20099;-58
2024/02/14 00:59:03;;;;;;;0.40;0.40;;;;;;;6.34;100.00;99443.50;5033365;28;20037;-58
2024/02/14 01:01:30;;;;;;;0.45;0.45;;;;;;;6.37;100.00;99453.75;5036797;28;20041;-58
2024/02/14 01:03:57;;;;;;;0.32;0.32;;;;;;;6.38;100.00;99455.38;5033490;28;20509;-58
2024/02/14 01:06:24;;;;;;;0.30;0.30;;;;;;;6.41;100.00;99454.94;5037768;28;20399;-59
2024/02/14 01:08:53;;;;;;;0.30;0.30;;;;;;;6.38;100.00;99455.38;5029323;28;20041;-59
2024/02/14 01:11:20;;;;;;;0.50;0.50;;;;;;;6.38;100.00;99450.84;5034477;28;20052;-58
2024/02/14 01:13:47;;;;;;;0.40;0.40;;;;;;;6.36;100.00;99446.75;5030680;28;20123;-58
2024/02/14 01:16:14;;;;;;;0.40;0.40;;;;;;;6.34;100.00;99448.81;5031486;28;20167;-58
2024/02/14 01:18:41;;;;;;;0.40;0.40;;;;;;;6.32;100.00;99442.91;5041941;28;20049;-58
2024/02/14 01:21:08;;;;;;;0.50;0.50;;;;;;;6.32;100.00;99440.25;5027658;28;20820;-58
2024/02/14 01:23:35;;;;;;;0.40;0.40;;;;;;;6.23;100.00;99436.97;5032321;28;20136;-58
2024/02/14 01:26:04;;;;;;;0.32;0.32;;;;;;;6.29;100.00;99440.63;5035637;28;20635;-58
2024/02/14 01:28:31;;;;;;;0.38;0.38;;;;;;;6.18;100.00;99429.59;5036560;28;20049;-58
2024/02/14 01:30:58;;;;;;;0.35;0.35;;;;;;;6.17;100.00;99427.19;5038105;28;20136;-59
2024/02/14 01:33:25;;;;;;;0.35;0.35;;;;;;;6.17;100.00;99428.00;5038670;28;20065;-58
2024/02/14 01:35:52;;;;;;;0.40;0.40;;;;;;;6.23;100.00;99427.13;5032923;28;20052;-58
2024/02/14 01:38:19;;;;;;;0.40;0.40;;;;;;;6.18;100.00;99418.97;5031511;28;20888;-59
2024/02/14 01:40:46;;;;;;;0.30;0.30;;;;;;;6.23;100.00;99411.16;5036719;28;20119;-59
2024/02/14 01:43:15;;;;;;;0.40;0.40;;;;;;;6.17;100.00;99412.03;5034085;28;20052;-58
2024/02/14 01:45:43;;;;;;;0.32;0.32;;;;;;;6.10;100.00;99424.53;5030859;28;20055;-58
2024/02/14 01:48:18;;;;;;;0.40;0.40;;;;;;;6.22;100.00;99411.41;5053899;28;20049;-58
2024/02/14 01:50:45;;;;;;;0.40;0.40;;;;;;;6.17;100.00;99405.88;5049594;28;20543;-58
2024/02/14 01:53:12;;;;;;;0.30;0.30;;;;;;;6.18;100.00;99405.66;5038549;28;20053;-58
2024/02/14 01:55:39;;;;;;;0.30;0.30;;;;;;;6.20;100.00;99408.13;5030320;28;20036;-58
2024/02/14 01:58:06;;;;;;;0.40;0.40;;;;;;;6.21;100.00;99407.09;5032370;28;20037;-59
2024/02/14 02:00:35;;;;;;;0.40;0.40;;;;;;;6.20;100.00;99411.59;5038777;28;20092;-58
2024/02/14 02:03:07;;;;;;;0.30;0.30;;;;;;;6.19;100.00;99407.31;5030239;28;20049;-58
2024/02/14 02:05:34;;;;;;;0.30;0.30;;;;;;;6.30;100.00;99410.34;5034013;28;20053;-58
2024/02/14 02:08:01;;;;;;;0.40;0.40;;;;;;;6.31;100.00;99403.97;5035211;28;20116;-58
2024/02/14 02:10:29;;;;;;;0.35;0.35;;;;;;;6.36;100.00;99415.63;5034384;28;20716;-58
2024/02/14 02:13:16;;;;;;;0.40;0.40;;;;;;;6.38;100.00;99418.09;5033068;28;20048;-58
2024/02/14 02:16:05;;;;;;;0.30;0.30;;;;;;;6.41;100.00;99417.66;5029940;28;20048;-58
2024/02/14 02:18:52;;;;;;;0.30;0.30;;;;;;;6.44;100.00;99417.25;5034762;28;20046;-58
2024/02/14 02:21:39;;;;;;;0.30;0.30;;;;;;;6.44;100.00;99423.41;5027540;28;22197;-58
2024/02/14 02:24:08;;;;;;;0.38;0.38;;;;;;;6.44;100.00;99417.25;5027832;28;20050;-58
2024/02/14 02:26:35;;;;;;;0.40;0.40;;;;;;;6.51;100.00;99422.53;5026448;28;20049;-58
2024/02/14 02:29:22;;;;;;;0.40;0.40;;;;;;;6.48;100.00;99431.78;5026999;28;20045;-58
2024/02/14 02:31:49;;;;;;;0.30;0.30;;;;;;;6.47;100.00;99438.94;5038835;28;20048;-58
2024/02/14 02:34:16;;;;;;;0.40;0.40;;;;;;;6.61;100.00;99447.69;5025732;28;20077;-58
2024/02/14 02:36:43;;;;;;;0.35;0.35;;;;;;;6.56;100.00;99446.69;5031950;28;20060;-58
2024/02/14 02:39:30;;;;;;;0.40;0.40;;;;;;;6.52;100.00;99441.00;5027379;28;20084;-59
2024/02/14 02:42:18;;;;;;;0.30;0.30;;;;;;;6.51;100.00;99438.53;5033883;28;20052;-58
2024/02/14 02:45:05;;;;;;;0.40;0.40;;;;;;;6.41;100.00;99434.44;5029946;28;20080;-58
2024/02/14 02:47:56;;;;;;;0.38;0.38;;;;;;;6.48;100.00;99432.59;5026469;28;20620;-58
2024/02/14 02:50:44;;;;;;;0.30;0.30;;;;;;;6.52;100.00;99435.66;5030446;28;20077;-58
2024/02/14 02:53:30;;;;;;;0.20;0.20;;;;;;;6.45;100.00;99432.19;5035775;28;20051;-59
2024/02/14 02:56:18;;;;;;;0.30;0.30;;;;;;;6.55;100.00;99431.75;5028988;28;20045;-58
2024/02/14 02:58:46;;;;;;;0.30;0.30;;;;;;;6.44;100.00;99412.75;5028984;28;20072;-58
2024/02/14 03:01:13;;;;;;;0.28;0.28;;;;;;;6.51;100.00;99423.34;5027090;28;20077;-58
2024/02/14 03:04:00;;;;;;;0.30;0.30;;;;;;;6.57;100.00;99425.19;5034767;28;20140;-58
2024/02/14 03:06:48;;;;;;;0.30;0.30;;;;;;;6.55;100.00;99424.56;5035561;28;20415;-59
2024/02/14 03:09:35;;;;;;;0.30;0.30;;;;;;;6.58;100.00;99437.47;5033494;28;20512;-59
2024/02/14 03:12:23;;;;;;;0.50;0.50;;;;;;;6.59;100.00;99440.94;5030028;28;20045;-58
2024/02/14 03:15:13;;;;;;;0.40;0.40;;;;;;;6.65;100.00;99456.91;5040716;28;20060;-59
2024/02/14 03:17:40;;;;;;;0.33;0.33;;;;;;;6.74;100.00;99459.31;5037056;28;20064;-59
2024/02/14 03:20:13;;;;;;;0.30;0.30;;;;;;;6.69;100.00;99452.81;5026947;28;20045;-58
2024/02/14 03:22:44;;;;;;;0.40;0.40;;;;;;;6.81;100.00;99449.47;5038920;28;20102;-58
2024/02/14 03:25:13;;;;;;;0.35;0.35;;;;;;;6.83;100.00;99455.41;5032761;28;20102;-59
2024/02/14 03:27:51;;;;;;;0.40;0.40;;;;;;;6.70;100.00;99457.09;5032519;28;20521;-58
2024/02/14 03:30:18;;;;;;;0.30;0.30;;;;;;;6.77;100.00;99448.25;5035494;28;20051;-59
2024/02/14 03:32:45;;;;;;;0.20;0.20;;;;;;;6.72;100.00;99456.06;5054165;28;20045;-59
2024/02/14 03:35:13;;;;;;;0.50;0.50;;;;;;;6.73;100.00;99455.03;5030869;28;20126;-58
2024/02/14 03:37:43;;;;;;;0.38;0.38;;;;;;;6.75;100.00;99451.13;5037551;28;20581;-58
2024/02/14 03:40:14;;;;;;;0.32;0.32;;;;;;;6.78;100.00;99461.34;5036474;28;20037;-58
2024/02/14 03:42:41;;;;;;;0.30;0.30;;;;;;;6.81;100.00;99468.09;5035745;28;20256;-58
2024/02/14 03:45:10;;;;;;;0.35;0.35;;;;;;;6.86;100.00;99468.28;5028183;28;20052;-58
2024/02/14 03:47:39;;;;;;;0.30;0.30;;;;;;;6.78;100.00;99457.88;5026852;28;20115;-59
2024/02/14 03:50:07;;;;;;;0.30;0.30;;;;;;;6.69;100.00;99460.78;5030055;28;20050;-59
2024/02/14 03:52:34;;;;;;;0.40;0.40;;;;;;;6.77;100.00;99462.41;5025876;28;20127;-58
2024/02/14 03:55:02;;;;;;;0.40;0.40;;;;;;;6.73;100.00;99474.50;5040257;28;20040;-58
2024/02/14 03:57:29;;;;;;;0.30;0.30;;;;;;;6.77;100.00;99467.72;5026885;28;20045;-58
2024/02/14 03:59:56;;;;;;;0.40;0.40;;;;;;;6.77;100.00;99469.56;5031458;28;20059;-58
2024/02/14 04:02:26;;;;;;;0.30;0.30;;;;;;;6.79;100.00;99462.16;5028619;28;20048;-58
2024/02/14 04:04:53;;;;;;;0.40;0.40;;;;;;;6.80;100.00;99458.50;5036908;28;20037;-58
2024/02/14 04:07:22;;;;;;;0.32;0.32;;;;;;;6.75;100.00;99459.13;5026387;28;20042;-58
2024/02/14 04:09:49;;;;;;;0.40;0.40;;;;;;;6.82;100.00;99467.09;5035351;28;20543;-58
2024/02/14 04:12:16;;;;;;;0.30;0.30;;;;;;;6.77;100.00;99464.25;5028329;28;20048;-58
2024/02/14 04:14:43;;;;;;;0.40;0.40;;;;;;;6.72;100.00;99464.88;5036065;28;20073;-58
2024/02/14 04:17:11;;;;;;;0.40;0.40;;;;;;;6.76;100.00;99462.59;5025838;28;20041;-58
2024/02/14 04:19:39;;;;;;;0.30;0.30;;;;;;;6.75;100.00;99468.97;5030594;28;20049;-58
2024/02/14 04:22:07;;;;;;;0.30;0.30;;;;;;;6.76;100.00;99465.25;5030096;28;20098;-58
2024/02/14 04:24:34;;;;;;;0.30;0.30;;;;;;;6.76;100.00;99473.25;5031646;28;20549;-58
2024/02/14 04:27:02;;;;;;;0.40;0.40;;;;;;;6.77;100.00;99470.38;5019548;28;20061;-60
2024/02/14 04:29:32;;;;;;;0.50;0.50;;;;;;;6.70;100.00;99470.41;5027458;28;20034;-59
2024/02/14 04:31:59;;;;;;;0.43;0.43;;;;;;;6.66;100.00;99461.22;5028305;28;20045;-59
2024/02/14 04:34:27;;;;;;;0.30;0.30;;;;;;;6.70;100.00;99465.06;5034117;28;20124;-60
2024/02/14 04:36:56;;;;;;;0.30;0.30;;;;;;;6.76;100.00;99462.59;5024153;28;20056;-58
2024/02/14 04:39:23;;;;;;;0.30;0.30;;;;;;;6.75;100.00;99463.63;5031367;28;20056;-58
2024/02/14 04:41:50;;;;;;;0.40;0.40;;;;;;;6.70;100.00;99457.09;5027717;28;20127;-58
2024/02/14 04:44:17;;;;;;;0.30;0.30;;;;;;;6.70;100.00;99459.75;5034156;28;20040;-59
2024/02/14 04:46:45;;;;;;;0.30;0.30;;;;;;;6.65;100.00;99462.22;5030943;28;20119;-57
2024/02/14 04:49:14;;;;;;;0.30;0.30;;;;;;;6.64;100.00;99465.94;5026979;28;20051;-60
2024/02/14 04:51:41;;;;;;;0.30;0.30;;;;;;;6.75;100.00;99467.13;5030447;28;20053;-58
2024/02/14 04:54:10;;;;;;;0.30;0.30;;;;;;;6.68;100.00;99467.13;5026319;28;20040;-58
2024/02/14 04:56:37;;;;;;;0.35;0.35;;;;;;;6.64;100.00;99465.94;5037549;28;20041;-58
2024/02/14 04:59:05;;;;;;;0.40;0.40;;;;;;;6.73;100.00;99468.34;5031344;28;20091;-58
2024/02/14 05:01:32;;;;;;;0.30;0.30;;;;;;;6.65;100.00;99464.91;5026553;28;20044;-58
2024/02/14 05:03:59;;;;;;;0.30;0.30;;;;;;;6.78;100.00;99471.19;5033332;28;20482;-58
2024/02/14 05:06:26;;;;;;;0.40;0.40;;;;;;;6.75;100.00;99469.78;5033645;28;20598;-58
2024/02/14 05:08:53;;;;;;;0.40;0.40;;;;;;;6.78;100.00;99473.88;5028330;28;20479;-58
2024/02/14 05:11:23;;;;;;;0.40;0.40;;;;;;;6.78;100.00;99473.88;5036722;28;20040;-59
2024/02/14 05:13:50;;;;;;;0.40;0.40;;;;;;;6.76;100.00;99479.38;5031835;28;20052;-58
2024/02/14 05:16:19;;;;;;;0.20;0.20;;;;;;;6.79;100.00;99483.47;5037149;28;20138;-58
2024/02/14 05:18:46;;;;;;;0.30;0.30;;;;;;;6.82;100.00;99483.09;5040573;28;20052;-58
2024/02/14 05:21:13;;;;;;;0.40;0.40;;;;;;;6.74;100.00;99481.47;5039678;28;20095;-58
2024/02/14 05:23:40;;;;;;;0.40;0.40;;;;;;;6.84;100.00;99483.66;5038182;28;20057;-58
2024/02/14 05:26:07;;;;;;;0.40;0.40;;;;;;;6.81;100.00;99484.09;5033043;28;20545;-58
2024/02/14 05:28:35;;;;;;;0.38;0.38;;;;;;;6.86;100.00;99490.44;5027101;28;20168;-58
2024/02/14 05:31:03;;;;;;;0.30;0.30;;;;;;;6.89;100.00;99498.00;5035290;28;20045;-58
2024/02/14 05:33:36;;;;;;;0.30;0.30;;;;;;;6.91;100.00;99503.94;5035694;28;20711;-58
2024/02/14 05:36:05;;;;;;;0.40;0.40;;;;;;;6.87;100.00;99491.25;5034968;28;20094;-58
2024/02/14 05:38:33;;;;;;;0.30;0.30;;;;;;;6.88;100.00;99493.69;5032014;28;20456;-58
2024/02/14 05:41:00;;;;;;;0.40;0.40;;;;;;;6.81;100.00;99487.56;5034588;28;20499;-58
2024/02/14 05:43:28;;;;;;;0.30;0.30;;;;;;;6.85;100.00;99498.63;5033465;28;20633;-58
2024/02/14 05:45:56;;;;;;;0.30;0.30;;;;;;;6.91;100.00;99490.63;5037298;28;20436;-58
2024/02/14 05:48:23;;;;;;;0.40;0.40;;;;;;;6.92;100.00;99496.75;5037523;28;20049;-58
2024/02/14 05:50:50;;;;;;;0.38;0.38;;;;;;;6.81;100.00;99492.91;5037653;28;20088;-58
2024/02/14 05:53:17;;;;;;;0.30;0.30;;;;;;;6.82;100.00;99488.41;5036214;28;20403;-58
2024/02/14 05:55:44;;;;;;;0.40;0.40;;;;;;;6.80;100.00;99495.78;5037557;28;20140;-58
2024/02/14 05:58:12;;;;;;;0.40;0.40;;;;;;;6.80;100.00;99488.59;5032417;28;20174;-58
2024/02/14 06:00:39;;;;;;;0.43;0.43;;;;;;;6.89;100.00;99484.69;5034111;28;20673;-58
2024/02/14 06:03:08;;;;;;;0.35;0.35;;;;;;;6.96;100.00;99495.28;5031565;28;20037;-58
2024/02/14 06:05:35;;;;;;;0.30;0.30;;;;;;;6.81;100.00;99497.41;5027702;28;20559;-58
2024/02/14 06:08:02;;;;;;;0.30;0.30;;;;;;;6.81;100.00;99492.91;5031119;28;20495;-58
2024/02/14 06:10:29;;;;;;;0.35;0.35;;;;;;;6.82;100.00;99499.88;5021064;28;20053;-58
2024/02/14 06:13:00;;;;;;;0.50;0.50;;;;;;;6.88;100.00;99503.53;5038148;28;20084;-58
2024/02/14 06:15:27;;;;;;;0.30;0.30;;;;;;;6.87;100.00;99496.59;5030777;28;20061;-58
2024/02/14 06:17:54;;;;;;;0.40;0.40;;;;;;;6.96;100.00;99499.81;5037418;28;20045;-58
2024/02/14 06:20:23;;;;;;;0.40;0.40;;;;;;;6.82;100.00;99493.72;5029052;28;20049;-58
2024/02/14 06:22:51;;;;;;;0.30;0.30;;;;;;;6.85;100.00;99495.97;5031961;28;20049;-58
2024/02/14 06:25:18;;;;;;;0.40;0.40;;;;;;;6.88;100.00;99506.19;5027201;28;20452;-58
2024/02/14 06:27:56;;;;;;;0.30;0.30;;;;;;;6.90;100.00;99514.81;5036747;28;20055;-58
2024/02/14 06:30:23;;;;;;;0.30;0.30;;;;;;;6.80;100.00;99517.91;5036419;28;20043;-58
2024/02/14 06:32:50;;;;;;;0.30;0.30;;;;;;;6.84;100.00;99527.13;5029405;28;20107;-58
2024/02/14 06:35:18;;;;;;;0.30;0.30;;;;;;;6.81;100.00;99518.72;5031119;28;20967;-58
2024/02/14 06:37:47;;;;;;;0.32;0.32;;;;;;;6.87;100.00;99528.56;5034464;28;20271;-58
2024/02/14 06:40:14;;;;;;;0.40;0.40;;;;;;;6.83;100.00;99532.66;5036604;28;20044;-58
2024/02/14 06:42:41;;;;;;;0.30;0.30;;;;;;;6.86;100.00;99524.25;5016106;28;20053;-59
2024/02/14 06:45:09;;;;;;;0.32;0.32;;;;;;;6.83;100.00;99527.34;5029187;28;20118;-58
2024/02/14 06:47:38;;;;;;;0.38;0.38;;;;;;;6.93;100.00;99527.69;5035655;28;20859;-58
2024/02/14 06:50:07;;;;;;;0.30;0.30;;;;;;;6.92;100.00;99526.06;5036150;28;20243;-58
2024/02/14 06:52:34;;;;;;;0.38;0.38;;;;;;;6.87;100.00;99528.56;5038337;28;20068;-58
2024/02/14 06:55:04;;;;;;;0.40;0.40;;;;;;;6.88;100.00;99535.50;5031216;28;20049;-58
2024/02/14 06:57:32;;;;;;;0.40;0.40;;;;;;;6.94;100.00;99531.16;5034903;28;20565;-58
2024/02/14 06:59:59;;;;;;;0.30;0.30;;;;;;;7.01;100.00;99539.97;5026527;28;20099;-58
2024/02/14 07:02:27;;;;;;;0.38;0.38;;;;;;;7.01;100.00;99540.78;5035262;28;20041;-58
2024/02/14 07:04:55;;;;;;;0.43;0.43;;;;;;;6.95;100.00;99546.97;5028343;28;20045;-58
2024/02/14 07:07:22;;;;;;;0.30;0.30;;;;;;;6.92;100.00;99552.72;5027645;28;20056;-58
2024/02/14 07:09:49;;;;;;;0.40;0.40;;;;;;;6.90;100.00;99549.44;5028967;28;20045;-58
2024/02/14 07:12:18;;;;;;;0.38;0.38;;;;;;;6.96;100.00;99556.59;5028034;28;20053;-58
2024/02/14 07:14:47;;;;;;;0.33;0.33;;;;;;;7.00;100.00;99554.34;5036590;28;20052;-58
2024/02/14 07:17:14;;;;;;;0.30;0.30;;;;;;;6.95;100.00;99552.28;5019860;28;20119;-58
2024/02/14 07:19:42;;;;;;;0.30;0.30;;;;;;;6.96;100.00;99550.44;5031934;28;20059;-58
2024/02/14 07:22:10;;;;;;;0.30;0.30;;;;;;;7.05;100.00;99547.34;5038644;28;20174;-58
2024/02/14 07:24:37;;;;;;;0.40;0.40;;;;;;;7.06;100.00;99548.97;5033960;28;20049;-58
2024/02/14 07:27:04;;;;;;;0.30;0.30;;;;;;;7.06;100.00;99551.66;5034365;28;20045;-59
2024/02/14 07:29:33;;;;;;;0.35;0.35;;;;;;;7.22;100.00;99560.19;5037791;28;20049;-58
2024/02/14 07:32:02;;;;;;;0.20;0.20;;;;;;;7.10;100.00;99566.16;5026013;28;20052;-58
2024/02/14 07:34:29;;;;;;;0.40;0.40;;;;;;;7.17;100.00;99570.69;5033898;28;20045;-58
2024/02/14 07:36:58;;;;;;;0.30;0.30;;;;;;;7.18;100.00;99566.97;5031722;28;20115;-58
2024/02/14 07:39:25;;;;;;;0.38;0.38;;;;;;;7.23;100.00;99556.47;5031478;28;20041;-59
2024/02/14 07:41:52;;;;;;;0.32;0.32;;;;;;;7.39;100.00;99552.50;5037128;28;20052;-58
2024/02/14 07:44:19;;;;;;;0.30;0.30;;;;;;;7.27;100.00;99549.72;5032278;28;20092;-58
2024/02/14 07:46:48;;;;;;;0.25;0.25;;;;;;;7.18;100.00;99551.78;5032463;28;20041;-58
2024/02/14 07:49:15;;;;;;;0.32;0.32;;;;;;;7.26;100.00;99556.03;5028351;28;20064;-59
2024/02/14 07:51:42;;;;;;;0.30;0.30;;;;;;;7.35;100.00;99562.78;5030628;28;20055;-58
2024/02/14 07:54:09;;;;;;;0.38;0.38;;;;;;;7.34;100.00;99569.97;5028741;28;20046;-58
2024/02/14 07:56:36;;;;;;;0.30;0.30;;;;;;;7.41;100.00;99577.91;5033213;28;20047;-58
2024/02/14 07:59:05;;;;;;;0.40;0.40;;;;;;;7.33;100.00;99575.50;5035612;28;20081;-58
2024/02/14 08:01:32;;;;;;;0.30;0.30;;;;;;;7.53;100.00;99592.22;5030335;28;20120;-58
2024/02/14 08:04:00;;;;;;;0.30;0.30;;;;;;;7.61;100.00;99587.66;5034442;28;20435;-59
2024/02/14 08:06:27;;;;;;;0.30;0.30;;;;;;;7.61;100.00;99595.66;5028239;28;21934;-59
2024/02/14 08:08:58;;;;;;;0.30;0.30;;;;;;;7.66;100.00;99595.84;5031648;28;20049;-58
2024/02/14 08:11:25;;;;;;;0.30;0.30;;;;;;;7.63;100.00;99602.41;5030310;28;20056;-59
2024/02/14 08:13:52;;;;;;;0.30;0.30;;;;;;;7.74;100.00;99603.63;5031755;28;20114;-58
2024/02/14 08:16:19;;;;;;;0.30;0.30;;;;;;;7.84;100.00;99603.97;5031868;28;20551;-59
2024/02/14 08:18:48;;;;;;;0.22;0.22;;;;;;;7.87;100.00;99608.84;5035079;28;20053;-59
2024/02/14 08:21:16;;;;;;;0.30;0.30;;;;;;;7.71;100.00;99604.03;5024155;28;20064;-59
2024/02/14 08:23:44;;;;;;;0.32;0.32;;;;;;;7.61;100.00;99603.66;5030967;28;20053;-59
2024/02/14 08:26:11;;;;;;;0.40;0.40;;;;;;;7.74;100.00;99598.28;5033629;28;20048;-59
2024/02/14 08:28:38;;;;;;;0.30;0.30;;;;;;;7.82;100.00;99602.53;5030506;28;20449;-58
2024/02/14 08:31:11;;;;;;;0.30;0.30;;;;;;;7.85;100.00;99604.78;5027847;28;20257;-59
2024/02/14 08:33:38;;;;;;;0.30;0.30;;;;;;;7.96;100.00;99604.91;5034081;28;20048;-59
2024/02/14 08:36:06;;;;;;;0.20;0.20;;;;;;;8.08;100.00;99607.66;5033458;28;20122;-59
2024/02/14 08:38:35;;;;;;;0.30;0.30;;;;;;;8.01;100.00;99601.56;5032485;28;20544;-59
2024/02/14 08:41:02;;;;;;;0.40;0.40;;;;;;;8.08;100.00;99605.00;5031583;28;20077;-59
2024/02/14 08:43:29;;;;;;;0.28;0.28;;;;;;;7.95;100.00;99605.91;5036871;28;20133;-59
2024/02/14 08:45:56;;;;;;;0.30;0.30;;;;;;;8.06;100.00;99598.25;5035444;28;20087;-59
2024/02/14 08:48:23;;;;;;;0.30;0.30;;;;;;;8.19;100.00;99600.84;5035737;28;20045;-59
2024/02/14 08:50:51;;;;;;;0.30;0.30;;;;;;;8.03;100.00;99591.50;5035194;28;20041;-58
2024/02/14 08:53:18;;;;;;;0.30;0.30;;;;;;;8.17;100.00;99592.22;5032057;28;20578;-59
2024/02/14 08:55:47;;;;;;;0.30;0.30;;;;;;;8.21;100.00;99604.09;5036637;28;20046;-59
2024/02/14 08:58:14;;;;;;;0.20;0.20;;;;;;;8.13;100.00;99597.16;5035344;28;20049;-59
2024/02/14 09:00:41;;;;;;;0.20;0.20;;;;;;;8.27;100.00;99611.22;5033267;28;20388;-59
2024/02/14 09:03:08;;;;;;;0.30;0.30;;;;;;;8.29;100.00;99609.16;5031948;28;20049;-59
2024/02/14 09:05:37;;;;;;;0.30;0.30;;;;;;;8.34;100.00;99613.88;5033107;28;20049;-59
2024/02/14 09:08:04;;;;;;;0.25;0.25;;;;;;;8.56;100.00;99601.78;5038411;28;20111;-59
2024/02/14 09:10:31;;;;;;;0.30;0.30;;;;;;;8.57;100.00;99608.75;5038751;28;20131;-59
2024/02/14 09:13:00;;;;;;;0.30;0.30;;;;;;;8.55;100.00;99610.00;5039477;28;20059;-58
2024/02/14 09:15:28;;;;;;;0.30;0.30;;;;;;;8.82;100.00;99624.75;5037173;28;20045;-59
2024/02/14 09:17:56;;;;;;;0.30;0.30;;;;;;;8.67;100.00;99618.13;5035218;28;20052;-59
2024/02/14 09:20:23;;;;;;;0.30;0.30;;;;;;;8.93;100.00;99609.00;5035536;28;20055;-59
2024/02/14 09:22:51;;;;;;;0.28;0.28;;;;;;;8.74;100.00;99614.34;5035832;28;20052;-58
2024/02/14 09:25:18;;;;;;;0.20;0.20;;;;;;;9.12;100.00;99612.50;5034156;28;20045;-59
2024/02/14 09:27:47;;;;;;;0.28;0.28;;;;;;;9.14;100.00;99605.09;5038153;28;20045;-58
2024/02/14 09:30:17;;;;;;;0.20;0.20;;;;;;;8.93;100.00;99617.84;5027673;28;20060;-59
2024/02/14 09:32:44;;;;;;;;;;;;;;;8.75;100.00;99607.13;5032224;28;20155;-59
2024/02/14 09:35:11;;;;;;;0.20;0.20;;;;;;;8.70;100.00;99601.63;5036935;28;20620;-59
2024/02/14 09:37:39;;;;;;;0.30;0.30;;;;;;;8.96;100.00;99597.84;5036118;28;20135;-59
2024/02/14 09:40:07;;;;;;;0.30;0.30;;;;;;;9.66;100.00;99603.59;5027731;28;20771;-59
2024/02/14 09:42:38;;;;;;;0.28;0.28;;;;;;;9.69;100.00;99611.16;5034013;28;20078;-59
2024/02/14 09:45:07;;;;;;;0.20;0.20;;;;;;;9.24;100.00;99600.84;5038846;28;20045;-59
2024/02/14 09:47:36;;;;;;;0.30;0.30;;;;;;;9.50;100.00;99606.88;5031628;28;20057;-59
2024/02/14 09:50:04;;;;;;;0.20;0.20;;;;;;;9.64;100.00;99605.66;5036098;28;20531;-60
2024/02/14 09:52:41;;;;;;;0.20;0.20;;;;;;;9.42;100.00;99602.66;5037055;28;20041;-59
2024/02/14 09:55:08;;;;;;;0.30;0.30;;;;;;;9.44;100.00;99613.16;5032011;28;20041;-59
2024/02/14 09:57:35;;;;;;;0.30;0.30;;;;;;;9.21;100.00;99620.00;5037237;28;20156;-58
2024/02/14 10:00:03;;;;;;;0.10;0.10;;;;;;;9.17;100.00;99608.13;5029257;28;20183;-59
2024/02/14 10:02:32;;;;;;;0.20;0.20;;;;;;;9.09;100.00;99611.09;5033032;28;20048;-58
2024/02/14 10:05:01;;;;;;;0.20;0.20;;;;;;;9.22;100.00;99621.63;5031719;28;20107;-58
2024/02/14 10:07:28;;;;;;;0.10;0.10;;;;;;;9.04;100.00;99630.47;5035825;28;20389;-59
2024/02/14 10:10:06;;;;;;;0.20;0.20;;;;;;;9.31;100.00;99634.69;5032173;28;20076;-58
2024/02/14 10:12:33;;;;;;;0.30;0.30;;;;;;;9.01;100.00;99651.47;5027710;28;20212;-57
2024/02/14 10:15:01;;;;;;;0.30;0.30;;;;;;;9.28;100.00;99647.50;5038642;28;20045;-59
2024/02/14 10:17:28;;;;;;;0.30;0.30;;;;;;;9.29;100.00;99633.06;5035999;28;20040;-59
2024/02/14 10:19:57;;;;;;;0.22;0.22;;;;;;;9.38;100.00;99638.09;5023785;28;20099;-59
2024/02/14 10:22:25;;;;;;;0.20;0.20;;;;;;;9.70;100.00;99639.53;5035101;28;20522;-59
2024/02/14 10:24:52;;;;;;;0.30;0.30;;;;;;;9.41;100.00;99637.66;5028863;28;20118;-60
2024/02/14 10:27:19;;;;;;;0.20;0.20;;;;;;;9.51;100.00;99640.63;5033211;28;20136;-60
2024/02/14 10:29:47;;;;;;;0.30;0.30;;;;;;;9.66;100.00;99641.06;5038529;28;20048;-60
2024/02/14 10:32:16;;;;;;;0.20;0.20;;;;;;;9.29;100.00;99637.59;5036018;28;20042;-59
2024/02/14 10:34:45;;;;;;;0.22;0.22;;;;;;;9.55;100.00;99638.31;5029612;28;20411;-59
2024/02/14 10:37:16;;;;;;;0.30;0.30;;;;;;;9.80;100.00;99635.50;5040763;28;20819;-60
2024/02/14 10:39:46;;;;;;;0.30;0.30;;;;;;;10.01;100.00;99628.81;5032031;28;20056;-60
2024/02/14 10:42:13;;;;;;;0.20;0.20;;;;;;;9.80;100.00;99635.50;5026174;28;20053;-60
2024/02/14 10:44:40;;;;;;;0.30;0.30;;;;;;;9.77;100.00;99636.78;5031667;28;20099;-59
2024/02/14 10:47:09;;;;;;;0.20;0.20;;;;;;;9.78;100.00;99641.09;5031913;28;20053;-59
2024/02/14 10:49:36;;;;;;;0.20;0.20;;;;;;;9.77;100.00;99625.25;5032991;28;20053;-59
2024/02/14 10:52:04;;;;;;;0.22;0.22;;;;;;;9.88;100.00;99635.19;5036243;28;20052;-59
2024/02/14 10:54:31;;;;;;;0.20;0.20;;;;;;;10.00;100.00;99635.22;5032890;28;20049;-59
2024/02/14 10:57:00;;;;;;;0.20;0.20;;;;;;;9.88;100.00;99629.81;5037594;28;20858;-60
2024/02/14 10:59:27;;;;;;;0.20;0.20;;;;;;;9.88;100.00;99632.50;5031768;28;20895;-59
2024/02/14 11:01:54;;;;;;;0.20;0.20;;;;;;;9.92;100.00;99628.34;5037285;28;20041;-59
2024/02/14 11:04:22;;;;;;;0.20;0.20;;;;;;;9.96;100.00;99620.66;5032706;28;20053;-60
2024/02/14 11:06:49;;;;;;;0.15;0.15;;;;;;;9.89;100.00;99621.59;5032162;28;20557;-59
2024/02/14 11:09:16;;;;;;;0.20;0.20;;;;;;;9.86;100.00;99627.41;5036441;28;20041;-60
2024/02/14 11:11:44;;;;;;;0.30;0.30;;;;;;;10.00;100.00;99611.94;5031590;28;20144;-59
2024/02/14 11:14:15;;;;;;;0.20;0.20;;;;;;;10.07;100.00;99612.66;5030473;28;20077;-59
2024/02/14 11:16:45;;;;;;;0.20;0.20;;;;;;;10.15;100.00;99615.00;5028647;28;20044;-59
2024/02/14 11:19:13;;;;;;;0.30;0.30;;;;;;;10.34;100.00;99601.56;5030311;28;20555;-59
2024/02/14 11:21:42;;;;;;;0.20;0.20;;;;;;;10.38;100.00;99607.25;5028448;28;20049;-59
2024/02/14 11:24:11;;;;;;;0.20;0.20;;;;;;;10.31;100.00;99597.47;5029274;28;20139;-59
2024/02/14 11:26:41;;;;;;;0.20;0.20;;;;;;;10.57;100.00;99595.38;5025958;28;20047;-59
2024/02/14 11:29:10;;;;;;;0.20;0.20;;;;;;;10.53;100.00;99600.41;5032847;28;20471;-59
2024/02/14 11:31:38;;;;;;;0.20;0.20;;;;;;;10.69;100.00;99598.06;5027013;28;20163;-60
2024/02/14 11:34:06;;;;;;;0.20;0.20;;;;;;;10.42;100.00;99587.81;5028609;28;20491;-59
2024/02/14 11:36:33;;;;;;;0.25;0.25;;;;;;;10.66;100.00;99604.72;5037308;28;20056;-60
2024/02/14 11:39:03;;;;;;;0.20;0.20;;;;;;;10.65;100.00;99600.38;5029108;28;20071;-58
2024/02/14 11:41:31;;;;;;;0.20;0.20;;;;;;;10.79;100.00;99614.38;5030921;28;20096;-58